sensor_id;sensor_type;location;lat;lon;timestamp;pressure;altitude;pressure_sealevel;temperature;humidity
55914;BME280;58179;48.776;9.124;2023-02-18T00:00:56;98221.50;;;10.46;100.00
55914;BME280;58179;48.776;9.124;2023-02-18T00:03:28;98225.53;;;10.49;100.00
55914;BME280;58179;48.776;9.124;2023-02-18T00:05:54;98221.97;;;10.43;100.00
55914;BME280;58179;48.776;9.124;2023-02-18T00:08:20;98227.50;;;10.65;100.00
55914;BME280;58179;48.776;9.124;2023-02-18T00:10:47;98225.66;;;10.66;100.00
55914;BME280;58179;48.776;9.124;2023-02-18T00:13:13;98225.88;;;10.64;100.00
55914;BME280;58179;48.776;9.124;2023-02-18T00:15:39;98224.25;;;10.63;100.00
55914;BME280;58179;48.776;9.124;2023-02-18T00:18:05;98227.94;;;10.51;100.00
55914;BME280;58179;48.776;9.124;2023-02-18T00:20:33;98214.25;;;10.42;100.00
55914;BME280;58179;48.776;9.124;2023-02-18T00:23:01;98213.34;;;10.36;100.00
55914;BME280;58179;48.776;9.124;2023-02-18T00:25:27;98221.03;;;10.50;100.00
55914;BME280;58179;48.776;9.124;2023-02-18T00:27:53;98223.44;;;10.39;100.00
55914;BME280;58179;48.776;9.124;2023-02-18T00:30:19;98224.28;;;10.52;100.00
55914;BME280;58179;48.776;9.124;2023-02-18T00:32:45;98228.63;;;10.46;100.00
55914;BME280;58179;48.776;9.124;2023-02-18T00:35:11;98223.00;;;10.42;100.00
55914;BME280;58179;48.776;9.124;2023-02-18T00:37:38;98231.16;;;10.53;100.00
55914;BME280;58179;48.776;9.124;2023-02-18T00:40:06;98235.06;;;10.62;100.00
55914;BME280;58179;48.776;9.124;2023-02-18T00:42:32;98233.34;;;10.56;100.00
55914;BME280;58179;48.776;9.124;2023-02-18T00:44:58;98214.34;;;10.47;100.00
55914;BME280;58179;48.776;9.124;2023-02-18T00:47:24;98200.66;;;10.50;100.00
55914;BME280;58179;48.776;9.124;2023-02-18T00:49:50;98201.47;;;10.39;100.00
55914;BME280;58179;48.776;9.124;2023-02-18T00:52:16;98202.75;;;10.48;100.00
55914;BME280;58179;48.776;9.124;2023-02-18T00:54:43;98207.34;;;10.41;100.00
55914;BME280;58179;48.776;9.124;2023-02-18T00:57:09;98193.06;;;10.42;100.00
55914;BME280;58179;48.776;9.124;2023-02-18T00:59:35;98208.59;;;10.38;100.00
55914;BME280;58179;48.776;9.124;2023-02-18T01:02:01;98206.09;;;10.43;100.00
55914;BME280;58179;48.776;9.124;2023-02-18T01:04:26;98204.34;;;10.37;100.00
55914;BME280;58179;48.776;9.124;2023-02-18T01:06:52;98194.69;;;10.43;100.00
55914;BME280;58179;48.776;9.124;2023-02-18T01:09:18;98197.66;;;10.46;100.00
55914;BME280;58179;48.776;9.124;2023-02-18T01:11:45;98201.00;;;10.42;100.00
55914;BME280;58179;48.776;9.124;2023-02-18T01:14:11;98188.94;;;10.34;100.00
55914;BME280;58179;48.776;9.124;2023-02-18T01:16:37;98182.81;;;10.34;100.00
55914;BME280;58179;48.776;9.124;2023-02-18T01:19:03;98185.34;;;10.40;100.00
55914;BME280;58179;48.776;9.124;2023-02-18T01:21:29;98183.63;;;10.58;100.00
55914;BME280;58179;48.776;9.124;2023-02-18T01:23:55;98179.63;;;10.43;100.00
55914;BME280;58179;48.776;9.124;2023-02-18T01:26:21;98187.19;;;10.28;100.00
55914;BME280;58179;48.776;9.124;2023-02-18T01:28:48;98177.53;;;10.34;100.00
55914;BME280;58179;48.776;9.124;2023-02-18T01:31:14;98178.31;;;10.46;100.00
55914;BME280;58179;48.776;9.124;2023-02-18T01:33:41;98169.16;;;10.37;100.00
55914;BME280;58179;48.776;9.124;2023-02-18T01:36:08;98170.53;;;10.28;100.00
55914;BME280;58179;48.776;9.124;2023-02-18T01:38:35;98169.72;;;10.27;100.00
55914;BME280;58179;48.776;9.124;2023-02-18T01:41:01;98178.69;;;10.26;100.00
55914;BME280;58179;48.776;9.124;2023-02-18T01:43:27;98181.75;;;10.12;100.00
55914;BME280;58179;48.776;9.124;2023-02-18T01:46:10;98177.47;;;10.10;100.00
55914;BME280;58179;48.776;9.124;2023-02-18T01:48:40;98174.47;;;9.95;100.00
55914;BME280;58179;48.776;9.124;2023-02-18T01:51:11;98166.63;;;9.89;100.00
55914;BME280;58179;48.776;9.124;2023-02-18T01:53:46;98168.59;;;9.93;100.00
55914;BME280;58179;48.776;9.124;2023-02-18T01:56:20;98167.88;;;9.86;100.00
55914;BME280;58179;48.776;9.124;2023-02-18T01:58:47;98160.22;;;9.85;100.00
55914;BME280;58179;48.776;9.124;2023-02-18T02:01:15;98166.53;;;9.84;100.00
55914;BME280;58179;48.776;9.124;2023-02-18T02:03:41;98172.56;;;9.73;100.00
55914;BME280;58179;48.776;9.124;2023-02-18T02:06:15;98176.63;;;9.87;100.00
55914;BME280;58179;48.776;9.124;2023-02-18T02:08:42;98161.34;;;9.77;100.00
55914;BME280;58179;48.776;9.124;2023-02-18T02:11:22;98157.19;;;9.69;100.00
55914;BME280;58179;48.776;9.124;2023-02-18T02:14:15;98165.19;;;9.63;100.00
55914;BME280;58179;48.776;9.124;2023-02-18T02:16:56;98169.91;;;9.61;100.00
55914;BME280;58179;48.776;9.124;2023-02-18T02:20:18;98171.28;;;9.63;100.00
55914;BME280;58179;48.776;9.124;2023-02-18T02:23:48;98169.66;;;9.62;100.00
55914;BME280;58179;48.776;9.124;2023-02-18T02:27:18;98174.63;;;9.59;100.00
55914;BME280;58179;48.776;9.124;2023-02-18T02:30:39;98176.56;;;9.63;100.00
55914;BME280;58179;48.776;9.124;2023-02-18T02:33:47;98159.47;;;9.66;100.00
55914;BME280;58179;48.776;9.124;2023-02-18T02:36:23;98157.41;;;9.68;100.00
55914;BME280;58179;48.776;9.124;2023-02-18T02:38:58;98157.63;;;9.78;100.00
55914;BME280;58179;48.776;9.124;2023-02-18T02:41:38;98153.63;;;9.76;100.00
55914;BME280;58179;48.776;9.124;2023-02-18T02:44:19;98163.25;;;9.70;100.00
55914;BME280;58179;48.776;9.124;2023-02-18T02:46:49;98149.38;;;9.75;100.00
55914;BME280;58179;48.776;9.124;2023-02-18T02:49:27;98145.81;;;9.69;100.00
55914;BME280;58179;48.776;9.124;2023-02-18T02:52:04;98146.94;;;9.73;100.00
55914;BME280;58179;48.776;9.124;2023-02-18T02:54:32;98140.03;;;9.72;100.00
55914;BME280;58179;48.776;9.124;2023-02-18T02:57:08;98138.00;;;9.74;100.00
55914;BME280;58179;48.776;9.124;2023-02-18T02:59:36;98136.41;;;9.85;100.00
55914;BME280;58179;48.776;9.124;2023-02-18T03:02:21;98140.75;;;9.79;100.00
55914;BME280;58179;48.776;9.124;2023-02-18T03:05:07;98136.25;;;9.80;100.00
55914;BME280;58179;48.776;9.124;2023-02-18T03:07:57;98141.44;;;9.86;100.00
55914;BME280;58179;48.776;9.124;2023-02-18T03:10:45;98152.16;;;9.91;100.00
55914;BME280;58179;48.776;9.124;2023-02-18T03:13:23;98157.78;;;9.83;100.00
55914;BME280;58179;48.776;9.124;2023-02-18T03:15:56;98156.75;;;9.96;100.00
55914;BME280;58179;48.776;9.124;2023-02-18T03:18:33;98140.69;;;9.97;100.00
55914;BME280;58179;48.776;9.124;2023-02-18T03:21:07;98139.06;;;9.85;100.00
55914;BME280;58179;48.776;9.124;2023-02-18T03:23:38;98131.19;;;9.78;100.00
55914;BME280;58179;48.776;9.124;2023-02-18T03:26:07;98130.38;;;9.66;100.00
55914;BME280;58179;48.776;9.124;2023-02-18T03:28:34;98123.59;;;9.58;100.00
55914;BME280;58179;48.776;9.124;2023-02-18T03:31:04;98129.19;;;9.50;100.00
55914;BME280;58179;48.776;9.124;2023-02-18T03:33:38;98120.22;;;9.51;100.00
55914;BME280;58179;48.776;9.124;2023-02-18T03:36:08;98110.78;;;9.44;100.00
55914;BME280;58179;48.776;9.124;2023-02-18T03:38:39;98130.09;;;9.44;100.00
55914;BME280;58179;48.776;9.124;2023-02-18T03:41:08;98118.94;;;9.42;100.00
55914;BME280;58179;48.776;9.124;2023-02-18T03:43:34;98117.56;;;9.40;100.00
55914;BME280;58179;48.776;9.124;2023-02-18T03:46:00;98120.75;;;9.30;100.00
55914;BME280;58179;48.776;9.124;2023-02-18T03:48:27;98113.16;;;9.33;100.00
55914;BME280;58179;48.776;9.124;2023-02-18T03:50:53;98128.53;;;9.25;100.00
55914;BME280;58179;48.776;9.124;2023-02-18T03:53:19;98136.19;;;9.15;100.00
55914;BME280;58179;48.776;9.124;2023-02-18T03:55:46;98132.25;;;9.06;100.00
55914;BME280;58179;48.776;9.124;2023-02-18T03:58:12;98140.56;;;8.91;100.00
55914;BME280;58179;48.776;9.124;2023-02-18T04:00:38;98137.78;;;8.86;100.00
55914;BME280;58179;48.776;9.124;2023-02-18T04:03:04;98135.56;;;8.83;100.00
55914;BME280;58179;48.776;9.124;2023-02-18T04:05:30;98133.16;;;8.81;100.00
55914;BME280;58179;48.776;9.124;2023-02-18T04:07:56;98131.69;;;8.85;100.00
55914;BME280;58179;48.776;9.124;2023-02-18T04:10:22;98134.47;;;8.90;100.00
55914;BME280;58179;48.776;9.124;2023-02-18T04:12:49;98140.13;;;8.94;100.00
55914;BME280;58179;48.776;9.124;2023-02-18T04:15:15;98128.50;;;8.95;100.00
55914;BME280;58179;48.776;9.124;2023-02-18T04:17:41;98139.66;;;8.97;100.00
55914;BME280;58179;48.776;9.124;2023-02-18T04:20:08;98121.97;;;8.98;100.00
55914;BME280;58179;48.776;9.124;2023-02-18T04:22:34;98125.66;;;8.97;100.00
55914;BME280;58179;48.776;9.124;2023-02-18T04:25:00;98132.53;;;8.98;100.00
55914;BME280;58179;48.776;9.124;2023-02-18T04:27:26;98115.75;;;8.92;100.00
55914;BME280;58179;48.776;9.124;2023-02-18T04:29:53;98117.59;;;8.91;100.00
55914;BME280;58179;48.776;9.124;2023-02-18T04:32:19;98109.09;;;8.89;100.00
55914;BME280;58179;48.776;9.124;2023-02-18T04:34:45;98110.25;;;8.93;100.00
55914;BME280;58179;48.776;9.124;2023-02-18T04:37:11;98114.75;;;8.93;100.00
55914;BME280;58179;48.776;9.124;2023-02-18T04:39:37;98116.66;;;8.86;100.00
55914;BME280;58179;48.776;9.124;2023-02-18T04:42:03;98112.03;;;8.81;100.00
55914;BME280;58179;48.776;9.124;2023-02-18T04:44:33;98118.78;;;8.77;100.00
55914;BME280;58179;48.776;9.124;2023-02-18T04:47:01;98127.72;;;8.76;100.00
55914;BME280;58179;48.776;9.124;2023-02-18T04:49:26;98123.91;;;8.72;100.00
55914;BME280;58179;48.776;9.124;2023-02-18T04:51:52;98118.88;;;8.71;100.00
55914;BME280;58179;48.776;9.124;2023-02-18T04:54:18;98119.88;;;8.70;100.00
55914;BME280;58179;48.776;9.124;2023-02-18T04:56:44;98124.56;;;8.68;100.00
55914;BME280;58179;48.776;9.124;2023-02-18T04:59:10;98129.03;;;8.67;100.00
55914;BME280;58179;48.776;9.124;2023-02-18T05:01:36;98126.91;;;8.76;100.00
55914;BME280;58179;48.776;9.124;2023-02-18T05:04:03;98124.38;;;8.69;100.00
55914;BME280;58179;48.776;9.124;2023-02-18T05:06:29;98121.00;;;8.62;100.00
55914;BME280;58179;48.776;9.124;2023-02-18T05:08:55;98117.53;;;8.62;100.00
55914;BME280;58179;48.776;9.124;2023-02-18T05:11:21;98124.28;;;8.58;100.00
55914;BME280;58179;48.776;9.124;2023-02-18T05:13:47;98124.50;;;8.56;100.00
55914;BME280;58179;48.776;9.124;2023-02-18T05:16:13;98123.13;;;8.53;100.00
55914;BME280;58179;48.776;9.124;2023-02-18T05:18:39;98130.88;;;8.48;100.00
55914;BME280;58179;48.776;9.124;2023-02-18T05:21:07;98129.09;;;8.42;100.00
55914;BME280;58179;48.776;9.124;2023-02-18T05:23:33;98130.16;;;8.41;100.00
55914;BME280;58179;48.776;9.124;2023-02-18T05:25:59;98123.69;;;8.37;100.00
55914;BME280;58179;48.776;9.124;2023-02-18T05:28:25;98123.75;;;8.31;100.00
55914;BME280;58179;48.776;9.124;2023-02-18T05:30:50;98127.38;;;8.30;100.00
55914;BME280;58179;48.776;9.124;2023-02-18T05:33:16;98125.19;;;8.27;100.00
55914;BME280;58179;48.776;9.124;2023-02-18T05:35:42;98121.44;;;8.41;100.00
55914;BME280;58179;48.776;9.124;2023-02-18T05:38:09;98114.19;;;8.30;100.00
55914;BME280;58179;48.776;9.124;2023-02-18T05:40:36;98120.50;;;8.29;100.00
55914;BME280;58179;48.776;9.124;2023-02-18T05:43:02;98117.19;;;8.40;100.00
55914;BME280;58179;48.776;9.124;2023-02-18T05:45:28;98114.09;;;8.43;100.00
55914;BME280;58179;48.776;9.124;2023-02-18T05:47:53;98113.38;;;8.54;100.00
55914;BME280;58179;48.776;9.124;2023-02-18T05:50:19;98105.88;;;8.51;100.00
55914;BME280;58179;48.776;9.124;2023-02-18T05:52:45;98107.50;;;8.52;100.00
55914;BME280;58179;48.776;9.124;2023-02-18T05:55:13;98115.19;;;8.53;100.00
55914;BME280;58179;48.776;9.124;2023-02-18T05:57:39;98108.91;;;8.54;100.00
55914;BME280;58179;48.776;9.124;2023-02-18T06:00:06;98105.81;;;8.58;100.00
55914;BME280;58179;48.776;9.124;2023-02-18T06:02:34;98105.00;;;8.57;100.00
55914;BME280;58179;48.776;9.124;2023-02-18T06:05:00;98107.16;;;8.48;100.00
55914;BME280;58179;48.776;9.124;2023-02-18T06:07:26;98103.84;;;8.53;100.00
55914;BME280;58179;48.776;9.124;2023-02-18T06:09:52;98102.00;;;8.53;100.00
55914;BME280;58179;48.776;9.124;2023-02-18T06:12:19;98109.53;;;8.50;100.00
55914;BME280;58179;48.776;9.124;2023-02-18T06:14:46;98109.78;;;8.48;100.00
55914;BME280;58179;48.776;9.124;2023-02-18T06:17:13;98115.28;;;8.47;100.00
55914;BME280;58179;48.776;9.124;2023-02-18T06:19:39;98113.66;;;8.46;100.00
55914;BME280;58179;48.776;9.124;2023-02-18T06:22:06;98120.41;;;8.42;100.00
55914;BME280;58179;48.776;9.124;2023-02-18T06:24:32;98115.56;;;8.39;100.00
55914;BME280;58179;48.776;9.124;2023-02-18T06:27:01;98116.44;;;8.33;100.00
55914;BME280;58179;48.776;9.124;2023-02-18T06:29:28;98110.75;;;8.29;100.00
55914;BME280;58179;48.776;9.124;2023-02-18T06:31:55;98109.41;;;8.20;100.00
55914;BME280;58179;48.776;9.124;2023-02-18T06:34:21;98107.66;;;8.14;100.00
55914;BME280;58179;48.776;9.124;2023-02-18T06:36:47;98108.91;;;8.11;100.00
55914;BME280;58179;48.776;9.124;2023-02-18T06:39:13;98108.25;;;8.16;100.00
55914;BME280;58179;48.776;9.124;2023-02-18T06:41:39;98110.81;;;8.23;100.00
55914;BME280;58179;48.776;9.124;2023-02-18T06:44:06;98103.84;;;8.28;100.00
55914;BME280;58179;48.776;9.124;2023-02-18T06:46:33;98115.19;;;8.35;100.00
55914;BME280;58179;48.776;9.124;2023-02-18T06:48:59;98116.16;;;8.41;100.00
55914;BME280;58179;48.776;9.124;2023-02-18T06:51:25;98116.09;;;8.47;100.00
55914;BME280;58179;48.776;9.124;2023-02-18T06:53:51;98112.34;;;8.55;100.00
55914;BME280;58179;48.776;9.124;2023-02-18T06:56:17;98116.13;;;8.59;100.00
55914;BME280;58179;48.776;9.124;2023-02-18T06:58:43;98118.44;;;8.56;100.00
55914;BME280;58179;48.776;9.124;2023-02-18T07:01:09;98120.53;;;8.65;100.00
55914;BME280;58179;48.776;9.124;2023-02-18T07:03:36;98118.50;;;8.67;100.00
55914;BME280;58179;48.776;9.124;2023-02-18T07:06:03;98114.53;;;8.76;100.00
55914;BME280;58179;48.776;9.124;2023-02-18T07:08:29;98121.78;;;8.81;100.00
55914;BME280;58179;48.776;9.124;2023-02-18T07:10:55;98119.06;;;8.87;100.00
55914;BME280;58179;48.776;9.124;2023-02-18T07:13:21;98113.38;;;9.02;100.00
55914;BME280;58179;48.776;9.124;2023-02-18T07:15:47;98115.72;;;9.10;100.00
55914;BME280;58179;48.776;9.124;2023-02-18T07:18:13;98105.88;;;9.17;100.00
55914;BME280;58179;48.776;9.124;2023-02-18T07:20:40;98110.38;;;9.17;100.00
55914;BME280;58179;48.776;9.124;2023-02-18T07:23:06;98109.47;;;9.23;100.00
55914;BME280;58179;48.776;9.124;2023-02-18T07:25:32;98104.63;;;9.20;100.00
55914;BME280;58179;48.776;9.124;2023-02-18T07:27:58;98100.75;;;9.22;100.00
55914;BME280;58179;48.776;9.124;2023-02-18T07:30:24;98095.13;;;9.30;100.00
55914;BME280;58179;48.776;9.124;2023-02-18T07:32:50;98099.50;;;9.37;100.00
55914;BME280;58179;48.776;9.124;2023-02-18T07:35:16;98102.88;;;9.44;100.00
55914;BME280;58179;48.776;9.124;2023-02-18T07:37:45;98102.06;;;9.55;100.00
55914;BME280;58179;48.776;9.124;2023-02-18T07:40:13;98089.34;;;9.63;100.00
55914;BME280;58179;48.776;9.124;2023-02-18T07:42:39;98090.03;;;9.59;100.00
55914;BME280;58179;48.776;9.124;2023-02-18T07:45:06;98091.31;;;9.68;100.00
55914;BME280;58179;48.776;9.124;2023-02-18T07:47:32;98077.50;;;9.66;100.00
55914;BME280;58179;48.776;9.124;2023-02-18T07:49:58;98076.13;;;9.63;100.00
55914;BME280;58179;48.776;9.124;2023-02-18T07:52:24;98072.91;;;9.73;100.00
55914;BME280;58179;48.776;9.124;2023-02-18T07:54:52;98069.84;;;9.76;100.00
55914;BME280;58179;48.776;9.124;2023-02-18T07:57:17;98064.44;;;9.83;100.00
55914;BME280;58179;48.776;9.124;2023-02-18T07:59:43;98064.53;;;9.88;100.00
55914;BME280;58179;48.776;9.124;2023-02-18T08:02:16;98068.34;;;9.92;100.00
55914;BME280;58179;48.776;9.124;2023-02-18T08:04:43;98078.91;;;10.03;100.00
55914;BME280;58179;48.776;9.124;2023-02-18T08:07:12;98071.66;;;10.10;100.00
55914;BME280;58179;48.776;9.124;2023-02-18T08:09:38;98080.91;;;10.20;100.00
55914;BME280;58179;48.776;9.124;2023-02-18T08:12:06;98075.25;;;10.28;100.00
55914;BME280;58179;48.776;9.124;2023-02-18T08:14:32;98075.84;;;10.30;100.00
55914;BME280;58179;48.776;9.124;2023-02-18T08:16:58;98074.09;;;10.35;100.00
55914;BME280;58179;48.776;9.124;2023-02-18T08:19:24;98084.91;;;10.34;100.00
55914;BME280;58179;48.776;9.124;2023-02-18T08:21:50;98090.31;;;10.51;100.00
55914;BME280;58179;48.776;9.124;2023-02-18T08:24:16;98074.19;;;10.52;100.00
55914;BME280;58179;48.776;9.124;2023-02-18T08:26:42;98086.94;;;10.55;100.00
55914;BME280;58179;48.776;9.124;2023-02-18T08:29:09;98079.50;;;10.52;100.00
55914;BME280;58179;48.776;9.124;2023-02-18T08:31:35;98075.47;;;10.90;100.00
55914;BME280;58179;48.776;9.124;2023-02-18T08:34:02;98072.41;;;10.98;100.00
55914;BME280;58179;48.776;9.124;2023-02-18T08:36:29;98071.53;;;10.92;100.00
55914;BME280;58179;48.776;9.124;2023-02-18T08:38:56;98066.56;;;10.96;100.00
55914;BME280;58179;48.776;9.124;2023-02-18T08:41:22;98063.34;;;10.94;100.00
55914;BME280;58179;48.776;9.124;2023-02-18T08:43:48;98063.78;;;11.02;100.00
55914;BME280;58179;48.776;9.124;2023-02-18T08:46:16;98057.44;;;11.03;100.00
55914;BME280;58179;48.776;9.124;2023-02-18T08:48:42;98058.09;;;11.10;100.00
55914;BME280;58179;48.776;9.124;2023-02-18T08:51:14;98061.88;;;11.14;100.00
55914;BME280;58179;48.776;9.124;2023-02-18T08:53:41;98060.69;;;11.22;100.00
55914;BME280;58179;48.776;9.124;2023-02-18T08:56:08;98069.78;;;11.26;100.00
55914;BME280;58179;48.776;9.124;2023-02-18T08:58:35;98050.47;;;11.14;100.00
55914;BME280;58179;48.776;9.124;2023-02-18T09:01:06;98053.97;;;11.48;100.00
55914;BME280;58179;48.776;9.124;2023-02-18T09:03:34;98052.53;;;11.57;100.00
55914;BME280;58179;48.776;9.124;2023-02-18T09:06:00;98059.81;;;11.78;100.00
55914;BME280;58179;48.776;9.124;2023-02-18T09:08:27;98046.22;;;11.75;100.00
55914;BME280;58179;48.776;9.124;2023-02-18T09:10:55;98052.47;;;11.85;100.00
55914;BME280;58179;48.776;9.124;2023-02-18T09:13:21;98044.94;;;11.77;100.00
55914;BME280;58179;48.776;9.124;2023-02-18T09:15:56;98047.00;;;11.92;100.00
55914;BME280;58179;48.776;9.124;2023-02-18T09:18:22;98047.22;;;11.74;100.00
55914;BME280;58179;48.776;9.124;2023-02-18T09:20:50;98036.31;;;11.70;100.00
55914;BME280;58179;48.776;9.124;2023-02-18T09:23:16;98041.28;;;11.67;100.00
55914;BME280;58179;48.776;9.124;2023-02-18T09:25:42;98037.84;;;11.83;100.00
55914;BME280;58179;48.776;9.124;2023-02-18T09:28:08;98030.44;;;12.01;100.00
55914;BME280;58179;48.776;9.124;2023-02-18T09:30:34;98043.75;;;12.07;100.00
55914;BME280;58179;48.776;9.124;2023-02-18T09:33:00;98019.47;;;12.15;100.00
55914;BME280;58179;48.776;9.124;2023-02-18T09:35:26;98026.41;;;11.99;100.00
55914;BME280;58179;48.776;9.124;2023-02-18T09:37:53;98022.31;;;11.91;100.00
55914;BME280;58179;48.776;9.124;2023-02-18T09:40:24;98020.53;;;11.97;100.00
55914;BME280;58179;48.776;9.124;2023-02-18T09:42:51;98028.41;;;12.09;100.00
55914;BME280;58179;48.776;9.124;2023-02-18T09:45:19;98018.44;;;11.99;100.00
55914;BME280;58179;48.776;9.124;2023-02-18T09:48:03;98013.03;;;12.11;100.00
55914;BME280;58179;48.776;9.124;2023-02-18T09:50:33;98019.97;;;12.33;100.00
55914;BME280;58179;48.776;9.124;2023-02-18T09:53:02;98022.94;;;12.37;100.00
55914;BME280;58179;48.776;9.124;2023-02-18T09:55:32;98022.44;;;12.62;100.00
55914;BME280;58179;48.776;9.124;2023-02-18T09:58:14;98031.38;;;12.34;100.00
55914;BME280;58179;48.776;9.124;2023-02-18T10:00:48;98031.53;;;12.44;100.00
55914;BME280;58179;48.776;9.124;2023-02-18T10:03:21;98019.06;;;12.45;100.00
55914;BME280;58179;48.776;9.124;2023-02-18T10:05:58;98011.50;;;12.36;100.00
55914;BME280;58179;48.776;9.124;2023-02-18T10:08:31;98028.31;;;12.42;100.00
55914;BME280;58179;48.776;9.124;2023-02-18T10:10:58;98006.94;;;12.54;100.00
55914;BME280;58179;48.776;9.124;2023-02-18T10:13:32;98017.75;;;12.69;100.00
55914;BME280;58179;48.776;9.124;2023-02-18T10:15:59;98037.00;;;12.59;100.00
55914;BME280;58179;48.776;9.124;2023-02-18T10:18:29;98019.59;;;12.68;100.00
55914;BME280;58179;48.776;9.124;2023-02-18T10:21:04;98024.34;;;12.66;100.00
55914;BME280;58179;48.776;9.124;2023-02-18T10:23:34;98026.44;;;12.64;100.00
55914;BME280;58179;48.776;9.124;2023-02-18T10:26:04;98025.00;;;12.78;100.00
55914;BME280;58179;48.776;9.124;2023-02-18T10:28:32;98030.50;;;13.15;100.00
55914;BME280;58179;48.776;9.124;2023-02-18T10:31:04;98027.75;;;13.37;100.00
55914;BME280;58179;48.776;9.124;2023-02-18T10:33:42;98021.91;;;13.40;100.00
55914;BME280;58179;48.776;9.124;2023-02-18T10:36:22;98034.00;;;13.53;100.00
55914;BME280;58179;48.776;9.124;2023-02-18T10:39:26;98026.44;;;13.40;100.00
55914;BME280;58179;48.776;9.124;2023-02-18T10:42:09;98017.56;;;13.61;100.00
55914;BME280;58179;48.776;9.124;2023-02-18T10:44:50;98024.69;;;13.55;100.00
55914;BME280;58179;48.776;9.124;2023-02-18T10:47:27;98031.47;;;13.36;100.00
55914;BME280;58179;48.776;9.124;2023-02-18T10:50:00;98017.00;;;13.22;100.00
55914;BME280;58179;48.776;9.124;2023-02-18T10:52:32;98011.16;;;13.57;100.00
55914;BME280;58179;48.776;9.124;2023-02-18T10:55:04;98020.97;;;13.51;100.00
55914;BME280;58179;48.776;9.124;2023-02-18T10:57:31;98006.50;;;13.74;100.00
55914;BME280;58179;48.776;9.124;2023-02-18T11:00:02;98007.72;;;13.62;100.00
55914;BME280;58179;48.776;9.124;2023-02-18T11:02:36;98003.47;;;13.61;100.00
55914;BME280;58179;48.776;9.124;2023-02-18T11:05:17;98011.53;;;14.13;100.00
55914;BME280;58179;48.776;9.124;2023-02-18T11:07:47;97996.38;;;14.18;100.00
55914;BME280;58179;48.776;9.124;2023-02-18T11:10:21;97997.50;;;14.32;100.00
55914;BME280;58179;48.776;9.124;2023-02-18T11:12:50;97995.34;;;14.24;100.00
55914;BME280;58179;48.776;9.124;2023-02-18T11:15:20;98000.56;;;14.56;100.00
55914;BME280;58179;48.776;9.124;2023-02-18T11:17:49;97980.91;;;14.83;100.00
55914;BME280;58179;48.776;9.124;2023-02-18T11:20:25;97984.41;;;15.19;100.00
55914;BME280;58179;48.776;9.124;2023-02-18T11:22:56;97986.56;;;15.22;100.00
55914;BME280;58179;48.776;9.124;2023-02-18T11:25:26;97988.16;;;15.02;100.00
55914;BME280;58179;48.776;9.124;2023-02-18T11:27:55;97983.09;;;15.31;100.00
55914;BME280;58179;48.776;9.124;2023-02-18T11:30:25;97976.44;;;15.59;100.00
55914;BME280;58179;48.776;9.124;2023-02-18T11:32:56;97963.09;;;15.29;92.01
55914;BME280;58179;48.776;9.124;2023-02-18T11:35:27;97970.81;;;15.35;100.00
55914;BME280;58179;48.776;9.124;2023-02-18T11:37:56;97970.81;;;15.05;94.14
55914;BME280;58179;48.776;9.124;2023-02-18T11:40:29;97974.03;;;15.27;100.00
55914;BME280;58179;48.776;9.124;2023-02-18T11:43:06;97965.50;;;15.25;100.00
55914;BME280;58179;48.776;9.124;2023-02-18T11:45:36;97960.44;;;15.59;100.00
55914;BME280;58179;48.776;9.124;2023-02-18T11:48:14;97956.72;;;15.60;100.00
55914;BME280;58179;48.776;9.124;2023-02-18T11:50:41;97954.22;;;15.94;100.00
55914;BME280;58179;48.776;9.124;2023-02-18T11:53:29;97955.28;;;16.08;97.12
55914;BME280;58179;48.776;9.124;2023-02-18T11:55:59;97948.47;;;16.36;100.00
55914;BME280;58179;48.776;9.124;2023-02-18T11:58:26;97954.97;;;16.10;100.00
55914;BME280;58179;48.776;9.124;2023-02-18T12:00:55;97964.03;;;16.19;100.00
55914;BME280;58179;48.776;9.124;2023-02-18T12:03:30;97961.34;;;16.29;100.00
55914;BME280;58179;48.776;9.124;2023-02-18T12:06:02;97952.56;;;16.23;100.00
55914;BME280;58179;48.776;9.124;2023-02-18T12:08:33;97961.63;;;16.22;100.00
55914;BME280;58179;48.776;9.124;2023-02-18T12:11:09;97950.16;;;16.12;100.00
55914;BME280;58179;48.776;9.124;2023-02-18T12:13:42;97950.50;;;16.00;100.00
55914;BME280;58179;48.776;9.124;2023-02-18T12:16:20;97943.34;;;15.70;100.00
55914;BME280;58179;48.776;9.124;2023-02-18T12:19:00;97939.63;;;15.41;100.00
55914;BME280;58179;48.776;9.124;2023-02-18T12:21:40;97947.63;;;15.31;100.00
55914;BME280;58179;48.776;9.124;2023-02-18T12:24:20;97947.63;;;15.16;100.00
55914;BME280;58179;48.776;9.124;2023-02-18T12:27:02;97940.69;;;14.99;100.00
55914;BME280;58179;48.776;9.124;2023-02-18T12:29:44;97946.00;;;14.79;100.00
55914;BME280;58179;48.776;9.124;2023-02-18T12:32:30;97925.19;;;14.71;100.00
55914;BME280;58179;48.776;9.124;2023-02-18T12:35:13;97942.75;;;14.62;100.00
55914;BME280;58179;48.776;9.124;2023-02-18T12:38:03;97945.38;;;14.47;100.00
55914;BME280;58179;48.776;9.124;2023-02-18T12:40:47;97939.50;;;14.40;100.00
55914;BME280;58179;48.776;9.124;2023-02-18T12:43:28;97951.25;;;14.54;100.00
55914;BME280;58179;48.776;9.124;2023-02-18T12:46:32;97938.19;;;14.47;100.00
55914;BME280;58179;48.776;9.124;2023-02-18T12:49:23;97948.75;;;14.32;100.00
55914;BME280;58179;48.776;9.124;2023-02-18T12:52:03;97944.34;;;13.95;99.71
55914;BME280;58179;48.776;9.124;2023-02-18T12:54:43;97942.97;;;13.88;100.00
55914;BME280;58179;48.776;9.124;2023-02-18T12:57:29;97932.81;;;13.75;100.00
55914;BME280;58179;48.776;9.124;2023-02-18T13:00:35;97933.31;;;13.77;100.00
55914;BME280;58179;48.776;9.124;2023-02-18T13:03:30;97954.34;;;13.73;100.00
55914;BME280;58179;48.776;9.124;2023-02-18T13:06:17;97931.94;;;13.69;100.00
55914;BME280;58179;48.776;9.124;2023-02-18T13:09:00;97939.00;;;13.48;100.00
55914;BME280;58179;48.776;9.124;2023-02-18T13:11:40;97943.75;;;13.41;100.00
55914;BME280;58179;48.776;9.124;2023-02-18T13:14:15;97930.53;;;13.14;100.00